22.1C
ясно
ясно
Дата и времяТемператураДавление, мм рт.ст.Влажность, %Осадки
МинимумМаксимум
12.06.2024 23:0017.9C20.7C76047переменная облачность
13.06.2024 02:0018.7C19.83C75954облачно с прояснениями
13.06.2024 05:0018.13C18.13C75969небольшой дождь
13.06.2024 08:0021.06C21.06C75979небольшой дождь
13.06.2024 11:0022.73C22.73C75974небольшой дождь
13.06.2024 14:0023.18C23.18C75969небольшой дождь
13.06.2024 17:0025.95C25.95C75952облачно с прояснениями
13.06.2024 20:0021.44C21.44C75972облачно с прояснениями
13.06.2024 23:0017.67C17.67C75981облачно с прояснениями
14.06.2024 02:0016.51C16.51C75984переменная облачность
14.06.2024 05:0019.1C19.1C75973переменная облачность
14.06.2024 08:0024.22C24.22C75955небольшая облачность
14.06.2024 11:0027.68C27.68C75941небольшая облачность
14.06.2024 14:0029.25C29.25C75936переменная облачность
14.06.2024 17:0028.98C28.98C75836переменная облачность
14.06.2024 20:0025.59C25.59C75752облачно с прояснениями
14.06.2024 23:0021.98C21.98C75760переменная облачность
15.06.2024 02:0019.73C19.73C75681ясно
15.06.2024 05:0020.89C20.89C75678переменная облачность
15.06.2024 08:0025.14C25.14C75661облачно с прояснениями
15.06.2024 11:0028.74C28.74C75549облачно с прояснениями
15.06.2024 14:0030.91C30.91C75439пасмурно
15.06.2024 17:0030.89C30.89C75338облачно с прояснениями
15.06.2024 20:0021.38C21.38C75581небольшой дождь
15.06.2024 23:0019.25C19.25C75488дождь
16.06.2024 02:0018.73C18.73C75594небольшой дождь
16.06.2024 05:0018.04C18.04C75592небольшой дождь
16.06.2024 08:0017.53C17.53C75684небольшой дождь
16.06.2024 11:0020.41C20.41C75668пасмурно
16.06.2024 14:0021.51C21.51C75661пасмурно
16.06.2024 17:0021.41C21.41C75660пасмурно
16.06.2024 20:0019.74C19.74C75467пасмурно
16.06.2024 23:0018.16C18.16C75470пасмурно
17.06.2024 02:0017.53C17.53C75373пасмурно
17.06.2024 05:0017.15C17.15C75185небольшой дождь
17.06.2024 08:0018.18C18.18C75089небольшой дождь
17.06.2024 11:0012.98C12.98C75193небольшой дождь
17.06.2024 14:0012.91C12.91C75381небольшой дождь
17.06.2024 17:0012.54C12.54C75366пасмурно
17.06.2024 20:0010.07C10.07C75367пасмурно
Дата и время наблюдения: 12.06.2024 21:23:00